Time;durP1;ratioP1;P1;durP2;ratioP2;P2;SDS_P1;SDS_P2;PMS_P1;PMS_P2;Temp;Humidity;BMP_temperature;BMP_pressure;BME280_temperature;BME280_humidity;BME280_pressure;Samples;Min_cycle;Max_cycle;Signal;HPM_P1;HPM_P2
2023/05/02 00:00:04;;;;;;;0.65;0.65;;;10.90;99.90;;;;;;5025027;28;20481;-74
2023/05/02 00:02:30;;;;;;;0.50;0.50;;;10.60;1.00;;;;;;5025315;28;20434;-74
2023/05/02 00:05:00;;;;;;;0.90;0.90;;;10.40;99.90;;;;;;5026952;28;20809;-74
2023/05/02 00:07:27;;;;;;;0.93;0.73;;;10.10;1.00;;;;;;5012113;28;20436;-74
2023/05/02 00:09:54;;;;;;;0.80;0.80;;;9.90;1.00;;;;;;5028662;28;20434;-74
2023/05/02 00:12:22;;;;;;;1.00;0.95;;;9.70;99.90;;;;;;5028455;28;20505;-74
2023/05/02 00:14:48;;;;;;;0.65;0.65;;;9.60;99.90;;;;;;5025173;28;20833;-74
2023/05/02 00:17:19;;;;;;;0.75;0.75;;;9.40;39.60;;;;;;5027779;28;20910;-74
2023/05/02 00:19:46;;;;;;;1.20;0.68;;;9.30;99.90;;;;;;5028280;28;20445;-75
2023/05/02 00:22:16;;;;;;;0.80;0.80;;;9.20;1.00;;;;;;5028925;28;20466;-75
2023/05/02 00:24:43;;;;;;;0.85;0.85;;;9.10;2.70;;;;;;5027894;28;20442;-75
2023/05/02 00:27:10;;;;;;;0.73;0.73;;;9.00;99.90;;;;;;5030282;28;20427;-75
2023/05/02 00:29:37;;;;;;;0.50;0.50;;;9.00;99.90;;;;;;5017569;28;20492;-75
2023/05/02 00:32:05;;;;;;;0.70;0.70;;;9.00;99.90;;;;;;5029142;28;20427;-75
2023/05/02 00:34:32;;;;;;;0.60;0.60;;;9.00;99.90;;;;;;5022056;28;20509;-76
2023/05/02 00:36:59;;;;;;;0.80;0.80;;;9.10;99.90;;;;;;5010120;28;20428;-75
2023/05/02 00:39:25;;;;;;;0.65;0.65;;;9.20;1.00;;;;;;5010352;28;20435;-75
2023/05/02 00:42:01;;;;;;;0.70;0.70;;;9.20;1.00;;;;;;5010409;28;20741;-75
2023/05/02 00:44:28;;;;;;;0.83;0.83;;;9.20;1.00;;;;;;5009653;28;20422;-75
2023/05/02 00:46:56;;;;;;;0.95;0.95;;;9.20;1.00;;;;;;5029428;28;20902;-75
2023/05/02 00:49:23;;;;;;;0.82;0.82;;;9.10;1.00;;;;;;5024499;28;20503;-75
2023/05/02 00:51:50;;;;;;;1.50;0.93;;;9.10;99.90;;;;;;5008594;28;20488;-75
2023/05/02 00:54:17;;;;;;;0.77;0.77;;;9.10;99.90;;;;;;5029306;28;20462;-75
2023/05/02 00:56:47;;;;;;;0.97;0.97;;;9.10;99.90;;;;;;5009745;28;20432;-75
2023/05/02 00:59:14;;;;;;;1.00;1.00;;;9.20;99.90;;;;;;5012970;28;20473;-75
2023/05/02 01:02:04;;;;;;;0.80;0.80;;;9.10;99.90;;;;;;5029834;28;20932;-75
2023/05/02 01:05:09;;;;;;;1.00;1.00;;;9.20;99.90;;;;;;5028846;28;20931;-75
2023/05/02 01:08:28;;;;;;;1.30;1.20;;;9.20;99.90;;;;;;5014124;28;20434;-75
2023/05/02 01:11:10;;;;;;;1.13;1.13;;;9.30;99.90;;;;;;4967466;28;20432;-75
2023/05/02 01:13:39;;;;;;;0.93;0.93;;;9.40;99.90;;;;;;4947662;28;20437;-75
2023/05/02 01:16:09;;;;;;;1.00;1.00;;;9.50;99.90;;;;;;4957755;28;20440;-75
2023/05/02 01:18:39;;;;;;;1.15;1.05;;;9.50;99.90;;;;;;4967912;28;20822;-75
2023/05/02 01:21:08;;;;;;;2.00;1.02;;;9.50;90.70;;;;;;4965364;28;20439;-75
2023/05/02 01:23:51;;;;;;;0.98;0.98;;;9.60;1.00;;;;;;4967749;28;20436;-75
2023/05/02 01:26:44;;;;;;;1.10;1.10;;;9.60;1.00;;;;;;4967231;28;20830;-75
2023/05/02 01:29:16;;;;;;;1.20;0.98;;;9.50;1.00;;;;;;4967618;28;20535;-75
2023/05/02 01:31:49;;;;;;;1.17;1.08;;;9.50;1.00;;;;;;4967250;28;20446;-75
2023/05/02 01:34:19;;;;;;;0.95;0.95;;;9.40;1.00;;;;;;4967559;28;20685;-75
2023/05/02 01:36:49;;;;;;;1.35;1.27;;;9.40;1.00;;;;;;4967814;28;20854;-75
2023/05/02 01:39:19;;;;;;;1.17;1.17;;;9.30;1.00;;;;;;4965596;28;20654;-75
2023/05/02 01:41:50;;;;;;;1.73;1.63;;;9.20;1.00;;;;;;4951398;28;20447;-75
2023/05/02 01:44:22;;;;;;;1.60;1.20;;;9.20;93.40;;;;;;4984913;28;20510;-75
2023/05/02 01:46:56;;;;;;;2.00;1.90;;;9.20;99.90;;;;;;5010979;28;20804;-75
2023/05/02 01:49:25;;;;;;;1.30;1.27;;;9.30;99.90;;;;;;5017591;28;20932;-75
2023/05/02 01:51:52;;;;;;;1.58;1.48;;;9.30;99.90;;;;;;5028767;28;20435;-75
2023/05/02 01:54:21;;;;;;;2.40;1.67;;;9.30;99.90;;;;;;5028250;28;20643;-75
2023/05/02 01:56:49;;;;;;;1.42;1.33;;;9.30;99.90;;;;;;5026337;28;20829;-75
2023/05/02 01:59:22;;;;;;;1.77;1.67;;;9.40;99.90;;;;;;5026645;28;20461;-75
2023/05/02 02:01:51;;;;;;;1.80;1.70;;;9.40;99.90;;;;;;5015005;28;20848;-75
2023/05/02 02:04:20;;;;;;;1.58;1.42;;;9.40;99.90;;;;;;5012215;28;20847;-75
2023/05/02 02:06:56;;;;;;;2.70;2.20;;;9.40;99.90;;;;;;5008968;28;20523;-75
2023/05/02 02:09:25;;;;;;;10.00;1.45;;;9.40;99.90;;;;;;5008895;28;20440;-75
2023/05/02 02:12:05;;;;;;;3.25;2.47;;;9.40;99.90;;;;;;5014821;28;20434;-74
2023/05/02 02:14:41;;;;;;;1.77;1.58;;;9.30;99.90;;;;;;5018183;28;20890;-74
2023/05/02 02:17:21;;;;;;;1.97;1.87;;;9.30;99.90;;;;;;5010551;28;21066;-74
2023/05/02 02:19:52;;;;;;;2.47;1.90;;;9.20;99.90;;;;;;5016722;28;20999;-74
2023/05/02 02:22:19;;;;;;;2.17;2.03;;;9.20;99.90;;;;;;5012174;28;20434;-74
2023/05/02 02:24:47;;;;;;;2.30;1.80;;;9.10;99.90;;;;;;5027675;28;20435;-74
2023/05/02 02:27:14;;;;;;;2.58;2.38;;;9.00;99.90;;;;;;5024445;28;20427;-74
2023/05/02 02:29:40;;;;;;;2.65;2.55;;;9.00;99.90;;;;;;5028438;28;20454;-74
2023/05/02 02:32:07;;;;;;;2.30;2.10;;;9.10;99.90;;;;;;5026608;28;20419;-74
2023/05/02 02:34:37;;;;;;;4.10;2.28;;;9.20;99.90;;;;;;5027569;28;20488;-74
2023/05/02 02:37:10;;;;;;;3.08;2.45;;;9.20;99.90;;;;;;5017418;28;20455;-74
2023/05/02 02:40:03;;;;;;;2.42;2.22;;;9.30;99.90;;;;;;5025291;28;20905;-74
2023/05/02 02:42:44;;;;;;;1.77;1.67;;;9.20;99.90;;;;;;5027757;28;20434;-74
2023/05/02 02:45:38;;;;;;;3.50;2.70;;;9.20;99.90;;;;;;5022682;28;20529;-74
2023/05/02 02:48:26;;;;;;;2.85;2.33;;;9.10;99.90;;;;;;5018071;28;20539;-74
2023/05/02 02:51:08;;;;;;;2.15;1.92;;;9.10;99.90;;;;;;5022899;28;20430;-74
2023/05/02 02:53:46;;;;;;;2.27;2.07;;;9.10;99.90;;;;;;5024324;28;20510;-74
2023/05/02 02:56:18;;;;;;;3.92;2.17;;;8.90;99.90;;;;;;5027479;28;20433;-74
2023/05/02 02:59:05;;;;;;;4.90;3.05;;;8.80;99.90;;;;;;5017588;28;20429;-74
2023/05/02 03:01:35;;;;;;;2.58;2.35;;;8.50;99.90;;;;;;5006812;28;20433;-74
2023/05/02 03:04:05;;;;;;;2.33;2.15;;;8.30;99.90;;;;;;5017766;28;20426;-74
2023/05/02 03:06:32;;;;;;;1.97;1.87;;;8.10;1.00;;;;;;5025651;28;20522;-74
2023/05/02 03:08:59;;;;;;;3.50;1.98;;;8.00;1.00;;;;;;5027708;28;20500;-74
2023/05/02 03:11:25;;;;;;;2.15;1.80;;;7.90;1.00;;;;;;5015444;28;20443;-74
2023/05/02 03:13:57;;;;;;;2.38;2.28;;;7.90;1.00;;;;;;5022904;28;20541;-74
2023/05/02 03:16:32;;;;;;;2.78;2.58;;;7.80;1.00;;;;;;5026608;28;20481;-74
2023/05/02 03:18:59;;;;;;;2.95;2.67;;;7.90;1.00;;;;;;5027271;28;20437;-74
2023/05/02 03:21:26;;;;;;;4.15;2.75;;;8.00;1.00;;;;;;5017930;28;21035;-74
2023/05/02 03:23:52;;;;;;;5.03;3.13;;;8.10;1.00;;;;;;5007034;28;20432;-74
2023/05/02 03:26:20;;;;;;;3.57;3.27;;;8.30;1.00;;;;;;5007483;28;20446;-74
2023/05/02 03:28:46;;;;;;;2.63;2.50;;;8.50;1.00;;;;;;5008191;28;20451;-74
2023/05/02 03:31:13;;;;;;;4.32;3.55;;;8.60;1.00;;;;;;5019826;28;20521;-75
2023/05/02 03:33:40;;;;;;;6.75;3.60;;;8.70;1.00;;;;;;5025727;28;20430;-74
2023/05/02 03:36:07;;;;;;;5.22;3.67;;;8.80;1.00;;;;;;5025426;28;20438;-74
2023/05/02 03:38:34;;;;;;;5.22;3.70;;;8.90;1.00;;;;;;5029732;28;20433;-74
2023/05/02 03:41:03;;;;;;;6.28;3.05;;;9.00;1.00;;;;;;5021420;28;20536;-74
2023/05/02 03:43:30;;;;;;;5.00;3.85;;;9.00;1.00;;;;;;5015744;28;20855;-74
2023/05/02 03:46:03;;;;;;;5.32;3.85;;;9.00;1.00;;;;;;5012429;28;20836;-75
2023/05/02 03:48:30;;;;;;;3.58;3.25;;;9.00;1.00;;;;;;5031003;28;20435;-74
2023/05/02 03:50:56;;;;;;;4.72;3.65;;;8.90;1.00;;;;;;5025048;28;20447;-74
2023/05/02 03:53:23;;;;;;;4.72;4.25;;;9.00;1.00;;;;;;5024550;28;20434;-75
2023/05/02 03:55:50;;;;;;;5.03;4.32;;;9.10;1.00;;;;;;5044915;28;20778;-74
2023/05/02 03:58:21;;;;;;;5.88;3.97;;;9.10;1.00;;;;;;5030494;28;20485;-74
2023/05/02 04:00:47;;;;;;;4.20;3.77;;;9.20;1.00;;;;;;5042957;28;20514;-74
2023/05/02 04:03:15;;;;;;;5.10;3.65;;;9.30;1.00;;;;;;5028391;28;20445;-74
2023/05/02 04:05:42;;;;;;;7.82;4.88;;;9.30;1.00;;;;;;5029856;28;20430;-74
2023/05/02 04:08:09;;;;;;;6.13;5.13;;;9.30;1.00;;;;;;5024454;28;20436;-74
2023/05/02 04:10:36;;;;;;;5.90;4.27;;;9.30;1.00;;;;;;5010903;28;20444;-74
2023/05/02 04:13:03;;;;;;;6.57;4.03;;;9.30;1.00;;;;;;5022436;28;20469;-74
2023/05/02 04:15:33;;;;;;;5.97;4.93;;;9.40;1.00;;;;;;5020781;28;20428;-75
2023/05/02 04:17:59;;;;;;;7.68;4.82;;;9.40;1.00;;;;;;5027306;28;20936;-74
2023/05/02 04:20:26;;;;;;;5.07;3.95;;;9.50;1.00;;;;;;5027936;28;20507;-74
2023/05/02 04:22:53;;;;;;;5.25;4.18;;;9.50;1.00;;;;;;5030195;28;20458;-75
2023/05/02 04:25:20;;;;;;;6.70;4.70;;;9.60;1.00;;;;;;5026993;28;20949;-75
2023/05/02 04:27:50;;;;;;;8.57;5.43;;;9.60;1.00;;;;;;5018137;28;20437;-74
2023/05/02 04:30:17;;;;;;;5.65;4.63;;;9.60;1.00;;;;;;5019175;28;20879;-74
2023/05/02 04:32:43;;;;;;;6.37;4.87;;;9.70;1.00;;;;;;5016692;28;20911;-75
2023/05/02 04:35:10;;;;;;;7.93;4.63;;;9.80;1.00;;;;;;5019178;28;20850;-74
2023/05/02 04:37:37;;;;;;;4.53;3.92;;;10.00;1.00;;;;;;5021954;28;20449;-74
2023/05/02 04:40:05;;;;;;;8.10;5.37;;;10.20;1.00;;;;;;5019694;28;20432;-74
2023/05/02 04:42:34;;;;;;;6.32;5.30;;;10.30;1.00;;;;;;5021493;28;20436;-75
2023/05/02 04:45:01;;;;;;;8.05;5.78;;;10.40;1.00;;;;;;5014929;28;20439;-74
2023/05/02 04:47:28;;;;;;;5.93;4.53;;;10.60;1.00;;;;;;5014815;28;20768;-74
2023/05/02 04:49:55;;;;;;;6.57;5.05;;;10.70;99.90;;;;;;5029862;28;20435;-74
2023/05/02 04:52:21;;;;;;;6.32;5.00;;;10.80;99.90;;;;;;5016678;28;20433;-74
2023/05/02 04:54:48;;;;;;;4.78;4.15;;;10.90;99.90;;;;;;5029292;28;20438;-75
2023/05/02 04:57:15;;;;;;;6.68;4.82;;;11.10;99.90;;;;;;5024959;28;20443;-74
2023/05/02 04:59:42;;;;;;;8.32;5.82;;;11.00;1.00;;;;;;5015960;28;20435;-74
2023/05/02 05:02:11;;;;;;;6.38;4.75;;;11.20;1.00;;;;;;5019364;28;20942;-74
2023/05/02 05:04:38;;;;;;;7.40;5.47;;;11.30;1.00;;;;;;5040550;28;20858;-74
2023/05/02 05:07:05;;;;;;;6.15;4.82;;;11.40;99.90;;;;;;5026050;28;21018;-74
2023/05/02 05:09:32;;;;;;;7.22;5.28;;;11.40;99.90;;;;;;5031214;28;20434;-74
2023/05/02 05:11:58;;;;;;;6.67;5.30;;;11.50;52.20;;;;;;5024528;28;20435;-74
2023/05/02 05:14:25;;;;;;;6.57;4.80;;;11.50;57.00;;;;;;5028476;28;20949;-74
2023/05/02 05:16:52;;;;;;;7.37;5.33;;;11.70;99.90;;;;;;5027176;28;20426;-74
2023/05/02 05:19:18;;;;;;;5.20;4.60;;;11.80;1.00;;;;;;5030906;28;20436;-74
2023/05/02 05:21:45;;;;;;;5.78;4.65;;;11.90;74.50;;;;;;5029549;28;20431;-75
2023/05/02 05:24:12;;;;;;;7.28;5.05;;;11.90;1.00;;;;;;5027689;28;21075;-74
2023/05/02 05:26:39;;;;;;;7.57;5.30;;;11.90;1.00;;;;;;5029696;28;20438;-74
2023/05/02 05:29:06;;;;;;;7.47;4.87;;;11.90;1.00;;;;;;5020038;28;20439;-74
2023/05/02 05:31:33;;;;;;;6.57;5.05;;;11.80;99.90;;;;;;5029462;28;20435;-74
2023/05/02 05:34:01;;;;;;;6.80;4.93;;;11.90;1.00;;;;;;5042529;28;20466;-75
2023/05/02 05:36:28;;;;;;;8.20;5.25;;;11.80;24.90;;;;;;5025482;28;20518;-74
2023/05/02 05:38:55;;;;;;;8.30;5.25;;;11.80;99.90;;;;;;5020358;28;20435;-74
2023/05/02 05:41:23;;;;;;;5.85;4.88;;;11.80;99.90;;;;;;5018716;28;20438;-74
2023/05/02 05:43:50;;;;;;;9.45;5.55;;;11.80;99.90;;;;;;5015330;28;20443;-75
2023/05/02 05:46:16;;;;;;;7.47;4.90;;;11.90;96.20;;;;;;5016809;28;20438;-75
2023/05/02 05:48:43;;;;;;;7.05;4.50;;;11.90;1.00;;;;;;5022213;28;20929;-74
2023/05/02 05:51:10;;;;;;;7.13;4.93;;;12.10;1.00;;;;;;5019798;28;20449;-74
2023/05/02 05:53:37;;;;;;;7.53;5.40;;;12.10;99.90;;;;;;5025976;28;20431;-74
2023/05/02 05:56:11;;;;;;;7.85;5.38;;;12.20;99.90;;;;;;5024365;28;20427;-74
2023/05/02 05:58:39;;;;;;;6.68;5.25;;;12.40;1.00;;;;;;5014180;28;20457;-74
2023/05/02 06:01:07;;;;;;;7.30;5.57;;;12.50;99.90;;;;;;5021578;28;20681;-74
2023/05/02 06:03:33;;;;;;;8.40;5.43;;;12.50;1.00;;;;;;5012430;28;20872;-74
2023/05/02 06:06:00;;;;;;;6.53;4.90;;;12.50;99.90;;;;;;5016705;28;20470;-74
2023/05/02 06:08:27;;;;;;;7.80;5.88;;;12.50;99.90;;;;;;5027602;28;20443;-74
2023/05/02 06:10:54;;;;;;;6.70;5.38;;;12.60;99.90;;;;;;5015173;28;20630;-75
2023/05/02 06:13:20;;;;;;;9.15;5.22;;;12.70;1.00;;;;;;5018713;28;20444;-75
2023/05/02 06:15:47;;;;;;;9.20;5.63;;;12.90;99.90;;;;;;5024897;28;20430;-75
2023/05/02 06:18:14;;;;;;;9.82;5.63;;;13.00;1.00;;;;;;5020466;28;20443;-74
2023/05/02 06:20:41;;;;;;;8.15;6.13;;;12.90;1.00;;;;;;5023903;28;20426;-75
2023/05/02 06:23:08;;;;;;;8.15;6.10;;;12.90;1.00;;;;;;5025138;28;20435;-75
2023/05/02 06:25:38;;;;;;;9.88;5.95;;;13.00;1.00;;;;;;5017849;28;20458;-75
2023/05/02 06:28:05;;;;;;;8.18;6.00;;;13.10;99.90;;;;;;5018038;28;20467;-74
2023/05/02 06:30:31;;;;;;;13.20;6.82;;;13.10;99.90;;;;;;5020647;28;20531;-74
2023/05/02 06:32:58;;;;;;;7.85;5.70;;;13.10;99.90;;;;;;5023834;28;20788;-74
2023/05/02 06:35:26;;;;;;;10.27;6.07;;;13.30;99.90;;;;;;5013633;28;20435;-74
2023/05/02 06:37:52;;;;;;;11.03;7.13;;;13.40;99.90;;;;;;5015493;28;20845;-74
2023/05/02 06:40:19;;;;;;;8.90;6.22;;;13.60;99.90;;;;;;5021555;28;20848;-75
2023/05/02 06:42:46;;;;;;;7.67;5.37;;;13.70;1.00;;;;;;5022563;28;20431;-75
2023/05/02 06:45:15;;;;;;;11.60;7.60;;;13.90;1.00;;;;;;5016948;28;20851;-75
2023/05/02 06:47:42;;;;;;;9.73;6.32;;;14.10;1.00;;;;;;5019373;28;20473;-75
2023/05/02 06:50:10;;;;;;;11.40;6.88;;;14.50;1.00;;;;;;5025087;28;20841;-75
2023/05/02 06:52:37;;;;;;;10.00;6.50;;;14.60;1.00;;;;;;5024915;28;20435;-74
2023/05/02 06:55:11;;;;;;;11.10;5.93;;;14.70;99.90;;;;;;5013306;28;20443;-74
2023/05/02 06:57:37;;;;;;;11.02;6.28;;;14.80;99.90;;;;;;5017833;28;21027;-75
2023/05/02 07:00:05;;;;;;;12.52;6.30;;;14.50;99.90;;;;;;5017727;28;20449;-73
2023/05/02 07:02:31;;;;;;;13.02;7.25;;;14.40;99.90;;;;;;5019973;28;20492;-72
2023/05/02 07:04:58;;;;;;;9.35;5.32;;;14.40;99.90;;;;;;5024141;28;20496;-72
2023/05/02 07:07:25;;;;;;;11.45;5.93;;;14.70;99.90;;;;;;5023665;28;20797;-72
2023/05/02 07:09:51;;;;;;;6.70;5.67;;;14.80;99.90;;;;;;5015876;28;20921;-72
2023/05/02 07:12:18;;;;;;;10.27;6.32;;;14.90;99.90;;;;;;5027150;28;20436;-74
2023/05/02 07:14:45;;;;;;;12.35;6.22;;;14.90;99.90;;;;;;5023370;28;20500;-75
2023/05/02 07:17:12;;;;;;;9.30;5.53;;;15.00;99.90;;;;;;5029548;28;20817;-74
2023/05/02 07:19:44;;;;;;;10.70;5.28;;;15.10;99.90;;;;;;5027444;28;20433;-74
2023/05/02 07:22:11;;;;;;;11.00;6.13;;;16.00;99.90;;;;;;5026325;28;20427;-74
2023/05/02 07:24:41;;;;;;;6.57;5.13;;;16.90;99.90;;;;;;5024442;28;20835;-75
2023/05/02 07:27:11;;;;;;;9.43;5.95;;;18.30;99.90;;;;;;5023097;28;20438;-75
2023/05/02 07:29:38;;;;;;;8.27;5.35;;;19.40;99.90;;;;;;5026846;28;20433;-75
2023/05/02 07:32:05;;;;;;;8.65;4.47;;;19.60;99.90;;;;;;5017906;28;20775;-75
2023/05/02 07:34:32;;;;;;;8.90;4.68;;;19.10;99.90;;;;;;5026477;28;20435;-75
2023/05/02 07:37:02;;;;;;;6.55;4.05;;;18.50;99.90;;;;;;5022631;28;21149;-75
2023/05/02 07:39:28;;;;;;;8.80;4.70;;;18.40;99.90;;;;;;5024196;28;20450;-75
2023/05/02 07:41:55;;;;;;;5.30;3.40;;;18.30;99.90;;;;;;5039938;28;20522;-75
2023/05/02 07:44:25;;;;;;;4.32;3.45;;;18.20;99.90;;;;;;5015479;28;20487;-76
2023/05/02 07:46:52;;;;;;;3.97;2.55;;;18.30;99.90;;;;;;5023573;28;20562;-75
2023/05/02 07:49:19;;;;;;;3.45;2.78;;;18.80;99.90;;;;;;5026482;28;21023;-76
2023/05/02 07:51:48;;;;;;;4.18;2.75;;;18.70;99.90;;;;;;5025416;28;20438;-74
2023/05/02 07:54:19;;;;;;;2.55;2.10;;;18.10;99.90;;;;;;5023575;28;20430;-75
2023/05/02 07:56:46;;;;;;;3.65;2.53;;;17.70;99.90;;;;;;5021414;28;20465;-74
2023/05/02 07:59:13;;;;;;;4.78;2.58;;;17.30;99.90;;;;;;5014997;28;20440;-75
2023/05/02 08:01:40;;;;;;;3.92;2.35;;;17.10;99.90;;;;;;5017493;28;20427;-74
2023/05/02 08:04:09;;;;;;;6.40;3.33;;;17.00;99.90;;;;;;5020911;28;20445;-74
2023/05/02 08:06:36;;;;;;;4.23;2.83;;;16.90;99.90;;;;;;5022877;28;20442;-76
2023/05/02 08:09:03;;;;;;;5.18;2.60;;;16.70;99.90;;;;;;5018670;28;20431;-74
2023/05/02 08:11:30;;;;;;;4.22;3.08;;;16.60;99.90;;;;;;5022424;28;20430;-75
2023/05/02 08:13:57;;;;;;;4.03;2.50;;;16.40;99.90;;;;;;5022620;28;20456;-75
2023/05/02 08:16:23;;;;;;;5.07;2.83;;;16.40;99.90;;;;;;5015905;28;20808;-75
2023/05/02 08:18:50;;;;;;;3.40;2.60;;;16.40;99.90;;;;;;5021673;28;20812;-75
2023/05/02 08:21:16;;;;;;;4.97;2.50;;;16.30;99.90;;;;;;5023817;28;20442;-75
2023/05/02 08:23:45;;;;;;;2.33;2.13;;;16.30;99.90;;;;;;5012298;28;20491;-75
2023/05/02 08:26:11;;;;;;;6.18;3.30;;;16.10;99.90;;;;;;5024879;28;20941;-76
2023/05/02 08:28:38;;;;;;;5.63;3.03;;;16.10;99.90;;;;;;5022470;28;20449;-75
2023/05/02 08:31:05;;;;;;;5.20;3.53;;;16.00;99.90;;;;;;5025967;28;20521;-75
2023/05/02 08:33:32;;;;;;;6.10;3.92;;;16.20;99.90;;;;;;5021901;28;20449;-75
2023/05/02 08:35:59;;;;;;;3.60;3.30;;;16.00;99.90;;;;;;5020249;28;20447;-75
2023/05/02 08:38:25;;;;;;;5.72;3.38;;;16.10;99.90;;;;;;5023271;28;20447;-75
2023/05/02 08:40:52;;;;;;;3.83;2.88;;;16.20;99.90;;;;;;5010221;28;20523;-75
2023/05/02 08:43:19;;;;;;;8.55;4.03;;;16.50;99.90;;;;;;5017793;28;20441;-75
2023/05/02 08:45:51;;;;;;;3.33;3.03;;;16.70;99.90;;;;;;5023840;28;20921;-75
2023/05/02 08:48:18;;;;;;;2.92;2.70;;;16.70;99.90;;;;;;5022543;28;20431;-75
2023/05/02 08:50:47;;;;;;;6.28;2.80;;;16.70;99.90;;;;;;5025788;28;20438;-75
2023/05/02 08:53:16;;;;;;;2.55;2.33;;;17.00;99.90;;;;;;5026214;28;20854;-75
2023/05/02 08:55:43;;;;;;;4.63;3.35;;;17.00;99.90;;;;;;5021779;28;20434;-75
2023/05/02 08:58:10;;;;;;;3.53;2.78;;;16.80;99.90;;;;;;5018747;28;20438;-75
2023/05/02 09:00:41;;;;;;;3.25;2.00;;;16.90;99.90;;;;;;5013163;28;20524;-75
2023/05/02 09:03:17;;;;;;;2.97;2.13;;;16.90;99.90;;;;;;5019444;28;20929;-75
2023/05/02 09:06:00;;;;;;;4.47;2.50;;;17.20;99.90;;;;;;5021231;28;20459;-75
2023/05/02 09:08:27;;;;;;;3.42;2.28;;;17.60;99.90;;;;;;5021000;28;20493;-76
2023/05/02 09:10:54;;;;;;;2.43;2.10;;;18.10;99.90;;;;;;5027758;28;20438;-75
2023/05/02 09:13:41;;;;;;;2.00;1.80;;;18.20;99.90;;;;;;5013666;28;20801;-75
2023/05/02 09:16:09;;;;;;;3.00;1.60;;;17.60;99.90;;;;;;5023904;28;20519;-75
2023/05/02 09:18:38;;;;;;;2.85;1.73;;;17.30;99.90;;;;;;5020659;28;20446;-75
2023/05/02 09:21:08;;;;;;;2.58;1.85;;;17.10;99.90;;;;;;5019525;28;20954;-75
2023/05/02 09:23:35;;;;;;;3.27;2.00;;;16.80;99.90;;;;;;5019933;28;20782;-75
2023/05/02 09:26:11;;;;;;;2.75;1.58;;;16.40;99.90;;;;;;5022681;28;20604;-74
2023/05/02 09:28:46;;;;;;;4.03;2.03;;;16.50;99.90;;;;;;5017326;28;20439;-75
2023/05/02 09:31:25;;;;;;;3.60;1.80;;;16.50;99.90;;;;;;5025120;28;20430;-75
2023/05/02 09:34:16;;;;;;;2.30;1.60;;;16.80;99.90;;;;;;5019461;28;20944;-75
2023/05/02 09:36:52;;;;;;;2.38;1.85;;;17.30;99.90;;;;;;5023041;28;20441;-75
2023/05/02 09:39:24;;;;;;;3.97;1.83;;;17.80;99.90;;;;;;5018249;28;20437;-75
2023/05/02 09:41:52;;;;;;;4.20;1.85;;;18.90;99.90;;;;;;5020946;28;20427;-76
2023/05/02 09:44:22;;;;;;;3.00;1.90;;;19.60;99.90;;;;;;5015993;28;20434;-75
2023/05/02 09:46:53;;;;;;;3.90;2.08;;;19.70;99.90;;;;;;5022217;28;20439;-75
2023/05/02 09:49:41;;;;;;;3.25;2.15;;;19.50;99.90;;;;;;5008875;28;20562;-75
2023/05/02 09:52:12;;;;;;;2.72;2.30;;;19.30;99.90;;;;;;5015942;28;20461;-75
2023/05/02 09:54:40;;;;;;;2.63;1.60;;;19.60;99.90;;;;;;5018546;28;20801;-76
2023/05/02 09:57:06;;;;;;;1.85;1.50;;;19.40;99.90;;;;;;5013963;28;20534;-75
2023/05/02 09:59:33;;;;;;;3.00;1.77;;;19.30;99.90;;;;;;5023740;28;20458;-75
2023/05/02 10:02:06;;;;;;;2.17;1.85;;;19.30;99.90;;;;;;5022619;28;20439;-75
2023/05/02 10:04:33;;;;;;;3.47;1.48;;;19.20;99.90;;;;;;5021342;28;20435;-75
2023/05/02 10:07:01;;;;;;;1.38;1.27;;;19.10;99.90;;;;;;5014700;28;20818;-75
2023/05/02 10:09:31;;;;;;;2.03;1.25;;;18.90;99.90;;;;;;5020349;28;20441;-75
2023/05/02 10:12:06;;;;;;;1.55;1.45;;;18.30;99.90;;;;;;5021947;28;20446;-74
2023/05/02 10:14:40;;;;;;;1.67;1.10;;;18.50;99.90;;;;;;5015415;28;20822;-75
2023/05/02 10:17:35;;;;;;;1.30;1.10;;;18.40;99.90;;;;;;5018303;28;20429;-75
2023/05/02 10:20:06;;;;;;;1.55;1.30;;;18.80;99.90;;;;;;5020387;28;20475;-75
2023/05/02 10:22:35;;;;;;;1.20;1.00;;;18.60;99.90;;;;;;5022014;28;20437;-75
2023/05/02 10:25:02;;;;;;;4.47;1.40;;;19.00;99.90;;;;;;5019399;28;20439;-75
2023/05/02 10:27:30;;;;;;;2.20;1.42;;;19.90;99.90;;;;;;5014696;28;20435;-74
2023/05/02 10:29:58;;;;;;;2.20;1.50;;;20.10;99.90;;;;;;5019727;28;20435;-74
2023/05/02 10:32:28;;;;;;;2.35;1.40;;;20.20;99.90;;;;;;5019869;28;20815;-74
2023/05/02 10:35:02;;;;;;;2.00;1.30;;;20.40;99.90;;;;;;5020790;28;20497;-74
2023/05/02 10:37:32;;;;;;;1.60;1.25;;;20.70;99.90;;;;;;5008549;28;20535;-74
2023/05/02 10:40:00;;;;;;;2.33;1.30;;;20.80;99.90;;;;;;5018816;28;20427;-74
2023/05/02 10:42:29;;;;;;;1.35;1.15;;;20.40;99.90;;;;;;5024133;28;20422;-73
2023/05/02 10:44:55;;;;;;;0.55;0.55;;;20.40;99.90;;;;;;5022476;28;20485;-73
2023/05/02 10:47:25;;;;;;;0.85;0.85;;;20.60;99.90;;;;;;5019141;28;20449;-75
2023/05/02 10:50:04;;;;;;;0.97;0.93;;;20.50;99.90;;;;;;5015236;28;20451;-75
2023/05/02 10:52:36;;;;;;;0.80;0.80;;;20.70;99.90;;;;;;5021811;28;20423;-75
2023/05/02 10:55:25;;;;;;;1.00;1.00;;;20.90;99.90;;;;;;5013927;28;20956;-74
2023/05/02 10:57:57;;;;;;;0.83;0.83;;;20.40;99.90;;;;;;5018562;28;20918;-74
2023/05/02 11:00:29;;;;;;;1.10;1.08;;;20.20;99.90;;;;;;5013647;28;20502;-74
2023/05/02 11:02:56;;;;;;;0.90;0.90;;;20.20;99.90;;;;;;5023546;28;20509;-74
2023/05/02 11:05:25;;;;;;;0.80;0.80;;;20.10;99.90;;;;;;5019005;28;20435;-74
2023/05/02 11:08:13;;;;;;;1.20;0.75;;;20.30;99.90;;;;;;5025317;28;20439;-75
2023/05/02 11:10:40;;;;;;;0.70;0.70;;;20.40;99.90;;;;;;5021299;28;20492;-74
2023/05/02 11:13:07;;;;;;;0.95;0.93;;;20.30;99.90;;;;;;5016812;28;20635;-75
2023/05/02 11:15:40;;;;;;;1.00;1.00;;;20.30;99.90;;;;;;5016342;28;20529;-74
2023/05/02 11:18:12;;;;;;;0.82;0.82;;;20.20;99.90;;;;;;5035603;28;21365;-75
2023/05/02 11:20:45;;;;;;;0.60;0.60;;;20.50;99.90;;;;;;5022473;28;20921;-75
2023/05/02 11:23:36;;;;;;;0.47;0.47;;;20.50;99.90;;;;;;5025815;28;20438;-75
2023/05/02 11:26:21;;;;;;;1.20;0.90;;;20.90;99.90;;;;;;5020950;28;20431;-74
2023/05/02 11:28:48;;;;;;;1.00;0.90;;;21.50;99.90;;;;;;5024477;28;20826;-74
2023/05/02 11:31:27;;;;;;;1.13;1.13;;;21.60;99.90;;;;;;5018907;28;20437;-72
2023/05/02 11:33:58;;;;;;;1.50;1.10;;;21.20;99.90;;;;;;5014947;28;20464;-72
2023/05/02 11:36:35;;;;;;;1.20;1.10;;;21.40;99.90;;;;;;5019977;28;22467;-73
2023/05/02 11:39:04;;;;;;;0.93;0.93;;;21.80;99.90;;;;;;5010569;28;20432;-73
2023/05/02 11:41:43;;;;;;;0.90;0.80;;;22.10;99.90;;;;;;5013865;28;20951;-73
2023/05/02 11:44:10;;;;;;;1.08;0.90;;;21.10;99.90;;;;;;5013616;28;20438;-73
2023/05/02 11:46:38;;;;;;;0.70;0.70;;;21.20;99.90;;;;;;5015115;28;20515;-73
2023/05/02 11:49:06;;;;;;;1.10;1.10;;;20.60;99.90;;;;;;5019443;28;20524;-73
2023/05/02 11:51:35;;;;;;;0.88;0.88;;;20.10;99.90;;;;;;5026346;28;20438;-73
2023/05/02 11:54:02;;;;;;;1.10;1.00;;;21.20;99.90;;;;;;5023878;28;20434;-72
2023/05/02 11:56:32;;;;;;;0.70;0.70;;;21.80;99.90;;;;;;5023645;28;20434;-74
2023/05/02 11:59:00;;;;;;;0.98;0.88;;;22.20;99.90;;;;;;5029000;28;20441;-73
2023/05/02 12:01:27;;;;;;;1.00;1.00;;;22.10;99.90;;;;;;5029001;28;20434;-73
2023/05/02 12:04:07;;;;;;;1.60;1.10;;;22.20;99.90;;;;;;5025531;28;20517;-74
2023/05/02 12:06:34;;;;;;;2.22;1.05;;;22.90;99.90;;;;;;5028090;28;20453;-74
2023/05/02 12:09:09;;;;;;;1.95;1.45;;;23.50;99.90;;;;;;5025801;28;20521;-73
2023/05/02 12:11:37;;;;;;;1.40;1.13;;;23.20;99.90;;;;;;5026679;28;20458;-73
2023/05/02 12:14:05;;;;;;;1.70;1.50;;;22.70;99.90;;;;;;5025047;28;20435;-74
2023/05/02 12:16:32;;;;;;;2.60;1.08;;;22.60;99.90;;;;;;5016279;28;20432;-74
2023/05/02 12:19:03;;;;;;;2.35;1.45;;;22.60;99.90;;;;;;5022369;28;20437;-74
2023/05/02 12:21:32;;;;;;;2.15;1.45;;;22.60;99.90;;;;;;5014844;28;20443;-73
2023/05/02 12:24:00;;;;;;;2.38;1.60;;;22.90;99.90;;;;;;5026443;28;20493;-74
2023/05/02 12:26:32;;;;;;;1.83;1.73;;;23.10;99.90;;;;;;5028329;28;20427;-73
2023/05/02 12:29:02;;;;;;;4.27;1.73;;;22.70;99.90;;;;;;5027547;28;20474;-74
2023/05/02 12:31:30;;;;;;;2.05;1.40;;;21.90;99.90;;;;;;5024613;28;20470;-74
2023/05/02 12:33:59;;;;;;;1.90;0.95;;;20.70;99.90;;;;;;5016827;28;20443;-72
2023/05/02 12:36:27;;;;;;;1.25;1.13;;;19.60;99.90;;;;;;5018343;28;20525;-73
2023/05/02 12:38:58;;;;;;;1.63;1.08;;;19.00;99.90;;;;;;5016640;28;20435;-74
2023/05/02 12:41:36;;;;;;;0.80;0.77;;;18.50;99.90;;;;;;5020137;28;20431;-74
2023/05/02 12:44:04;;;;;;;0.82;0.82;;;17.90;99.90;;;;;;5023170;28;21021;-73
2023/05/02 12:46:31;;;;;;;1.17;1.13;;;17.40;99.90;;;;;;5019287;28;20439;-74
2023/05/02 12:49:07;;;;;;;1.15;1.10;;;17.40;99.90;;;;;;5016949;28;20533;-73
2023/05/02 12:51:35;;;;;;;0.90;0.90;;;17.60;99.90;;;;;;5020865;28;20457;-73
2023/05/02 12:54:02;;;;;;;0.73;0.73;;;17.70;99.90;;;;;;5017357;28;20441;-74
2023/05/02 12:56:33;;;;;;;0.80;0.75;;;18.00;99.90;;;;;;5019006;28;20430;-73
2023/05/02 12:59:02;;;;;;;0.70;0.70;;;18.20;99.90;;;;;;5017263;28;20538;-73
2023/05/02 13:01:31;;;;;;;1.33;1.23;;;18.40;99.90;;;;;;5018342;28;20492;-74
2023/05/02 13:04:01;;;;;;;0.70;0.70;;;18.60;99.90;;;;;;5014392;28;20439;-72
2023/05/02 13:06:27;;;;;;;1.53;1.00;;;18.70;99.90;;;;;;5025269;28;20427;-73